createdAt,value
2018-06-24T12:11:56.263Z,100228.51
2018-06-24T12:14:22.272Z,100220.20
2018-06-24T12:16:48.323Z,100235.12
2018-06-24T12:19:14.345Z,100221.98
2018-06-24T12:21:40.385Z,100225.78
2018-06-24T12:24:06.419Z,100232.47
2018-06-24T12:26:32.469Z,100205.45
2018-06-24T12:28:58.439Z,100231.23
2018-06-24T12:31:24.457Z,100233.78
2018-06-24T12:33:50.463Z,100229.09
2018-06-24T12:36:16.428Z,100231.64
2018-06-24T12:38:42.370Z,100235.56
2018-06-24T12:41:08.365Z,100234.23
2018-06-24T12:43:34.390Z,100227.72
2018-06-24T12:46:00.318Z,100234.84
2018-06-24T12:48:26.276Z,100228.86
2018-06-24T12:50:52.245Z,100224.59
2018-06-24T12:53:18.222Z,100230.97
2018-06-24T12:55:44.227Z,100235.21
2018-06-24T12:58:10.257Z,100231.45
2018-06-24T13:00:36.627Z,100225.39
2018-06-24T13:03:02.185Z,100222.31
2018-06-24T13:05:28.199Z,100223.92
2018-06-24T13:07:54.168Z,100212.39
2018-06-24T13:10:20.383Z,100218.72
2018-06-24T13:12:46.371Z,100216.20
2018-06-24T13:15:12.331Z,100215.32
2018-06-24T13:17:38.267Z,100211.45
2018-06-24T13:20:04.235Z,100211.00
2018-06-24T13:22:30.174Z,100220.30
2018-06-24T13:24:56.395Z,100219.40
2018-06-24T13:27:22.495Z,100212.20
2018-06-24T13:29:48.484Z,100212.20
2018-06-24T13:32:14.645Z,100212.08
2018-06-24T13:34:40.742Z,100203.55
2018-06-24T13:37:06.760Z,100203.98
2018-06-24T13:39:32.747Z,100201.00
2018-06-24T13:41:58.729Z,100202.40
2018-06-24T13:44:24.720Z,100216.90
2018-06-24T13:46:50.717Z,100210.40
2018-06-24T13:49:16.692Z,100204.50
2018-06-24T13:51:42.680Z,100198.60
2018-06-24T13:54:08.640Z,100197.75
2018-06-24T13:56:34.693Z,100187.17
2018-06-24T13:59:00.643Z,100191.40
2018-06-24T14:01:26.618Z,100184.97
2018-06-24T14:03:52.600Z,100180.38
2018-06-24T14:06:18.618Z,100181.58
2018-06-24T14:08:44.619Z,100181.98
2018-06-24T14:11:10.802Z,100187.98
2018-06-24T14:13:36.810Z,100183.27
2018-06-24T14:16:02.822Z,100183.23
2018-06-24T14:18:28.856Z,100184.13
2018-06-24T14:20:54.843Z,100173.88
2018-06-24T14:23:20.872Z,100175.59
2018-06-24T14:25:46.799Z,100172.20
2018-06-24T14:28:12.777Z,100164.42
2018-06-24T14:30:38.740Z,100165.78
2018-06-24T14:33:04.706Z,100167.45
2018-06-24T14:35:30.692Z,100169.55
2018-06-24T14:37:56.649Z,100162.72
2018-06-24T14:40:22.592Z,100159.72
2018-06-24T14:42:48.617Z,100159.22
2018-06-24T14:45:14.571Z,100159.61
2018-06-24T14:47:40.549Z,100160.06
2018-06-24T14:50:06.488Z,100157.86
2018-06-24T14:52:32.473Z,100148.90
2018-06-24T14:54:58.442Z,100151.42
2018-06-24T14:57:24.390Z,100144.68
2018-06-24T14:59:50.468Z,100147.31
2018-06-24T15:02:16.447Z,100152.44
2018-06-24T15:04:42.546Z,100151.64
2018-06-24T15:07:08.561Z,100155.06
2018-06-24T15:09:34.553Z,100150.50
2018-06-24T15:12:00.514Z,100155.15
2018-06-24T15:14:26.492Z,100150.05
2018-06-24T15:16:52.482Z,100156.92
2018-06-24T15:19:18.536Z,100161.18
2018-06-24T15:21:44.530Z,100157.35
2018-06-24T15:24:10.511Z,100157.70
2018-06-24T15:26:36.539Z,100164.52
2018-06-24T15:29:02.528Z,100150.05
2018-06-24T15:31:28.520Z,100156.08
2018-06-24T15:33:54.628Z,100147.23
2018-06-24T15:36:20.650Z,100148.38
2018-06-24T15:38:46.699Z,100149.59
2018-06-24T15:41:12.695Z,100139.00
2018-06-24T15:43:38.674Z,100135.97
2018-06-24T15:46:04.712Z,100142.00
2018-06-24T15:48:30.698Z,100139.00
2018-06-24T15:50:56.705Z,100139.37
2018-06-24T15:53:23.068Z,100141.89
2018-06-24T15:55:49.065Z,100143.64
2018-06-24T15:58:15.025Z,100144.95
2018-06-24T16:00:41.007Z,100136.10
2018-06-24T16:03:07.740Z,100139.95
2018-06-24T16:05:33.820Z,100141.63
2018-06-24T16:07:59.898Z,100136.13
2018-06-24T16:10:25.876Z,100138.30
2018-06-24T16:12:51.865Z,100141.70
2018-06-24T16:15:17.921Z,100143.43
2018-06-24T16:17:43.880Z,100141.34
2018-06-24T16:20:10.908Z,100141.34
2018-06-24T16:22:36.918Z,100143.94
2018-06-24T16:25:02.888Z,100150.31
2018-06-24T16:27:28.944Z,100143.58
2018-06-24T16:29:54.897Z,100150.80
2018-06-24T16:32:20.914Z,100155.45
2018-06-24T16:34:46.888Z,100152.95
2018-06-24T16:37:17.140Z,100155.16
2018-06-24T16:39:43.099Z,100153.50
2018-06-24T16:42:09.059Z,100153.97
2018-06-24T16:44:35.031Z,100156.97
2018-06-24T16:47:01.004Z,100148.92
2018-06-24T16:49:26.970Z,100145.52
2018-06-24T16:51:52.998Z,100147.12
2018-06-24T16:54:20.147Z,100147.17
2018-06-24T16:56:46.198Z,100142.10
2018-06-24T16:59:12.228Z,100152.31
2018-06-24T17:01:38.219Z,100144.67
2018-06-24T17:04:04.457Z,100143.95
2018-06-24T17:06:30.422Z,100142.22
2018-06-24T17:08:56.492Z,100140.12
2018-06-24T17:11:22.506Z,100145.64
2018-06-24T17:13:48.743Z,100145.22
2018-06-24T17:16:14.761Z,100140.07
2018-06-24T17:18:42.772Z,100135.50
2018-06-24T17:21:10.008Z,100136.39
2018-06-24T17:23:39.729Z,100133.75
2018-06-24T17:26:05.754Z,100129.55
2018-06-24T17:28:31.820Z,100135.45
2018-06-24T17:30:57.839Z,100136.30
2018-06-24T17:33:23.858Z,100133.75
2018-06-24T17:35:49.962Z,100138.00
2018-06-24T17:38:16.046Z,100134.67
2018-06-24T17:40:42.107Z,100135.87
2018-06-24T17:43:09.230Z,100133.25
2018-06-24T17:45:35.267Z,100134.95
2018-06-24T17:48:01.266Z,100126.98
2018-06-24T17:53:44.999Z,100125.85
2018-06-24T17:56:12.075Z,100119.83
2018-06-24T17:58:43.515Z,100119.73
2018-06-24T18:01:13.488Z,100113.34
2018-06-24T18:03:41.588Z,100111.74
2018-06-24T18:06:07.737Z,100113.89
2018-06-24T18:08:33.812Z,100113.46
2018-06-24T18:10:59.815Z,100112.59
2018-06-24T18:13:26.762Z,100116.39
2018-06-24T18:15:53.834Z,100110.87
2018-06-24T18:18:20.114Z,100121.08
2018-06-24T18:20:46.368Z,100115.96
2018-06-24T18:23:12.425Z,100124.48
2018-06-24T18:25:38.419Z,100116.45
2018-06-24T18:28:04.482Z,100120.47
2018-06-24T18:30:33.805Z,100116.97
2018-06-24T18:32:59.925Z,100115.95
2018-06-24T18:35:29.285Z,100125.31
2018-06-24T18:38:03.629Z,100125.05
2018-06-24T18:40:30.886Z,100128.94
2018-06-24T18:45:31.660Z,100136.10
2018-06-24T18:48:02.035Z,100128.94
2018-06-24T18:50:28.100Z,100125.49
2018-06-24T18:52:54.219Z,100131.53
2018-06-24T18:55:20.597Z,100128.98
2018-06-24T18:57:47.325Z,100130.70
2018-06-24T19:00:13.577Z,100140.98
2018-06-24T19:07:42.231Z,100147.93
2018-06-24T19:10:08.371Z,100147.57
2018-06-24T19:12:34.538Z,100153.47
2018-06-24T19:17:47.319Z,100147.95
2018-06-24T19:20:15.669Z,100149.91
2018-06-24T19:22:49.476Z,100155.16
2018-06-24T19:32:08.566Z,100158.44
2018-06-24T19:34:42.104Z,100162.32
2018-06-24T19:39:41.570Z,100164.07
2018-06-24T19:42:08.980Z,100173.05
2018-06-24T19:44:38.360Z,100168.89
2018-06-24T19:47:04.610Z,100175.59
2018-06-24T19:49:31.855Z,100177.88
2018-06-24T19:51:58.062Z,100177.15
2018-06-24T19:54:24.199Z,100177.56
2018-06-24T19:56:52.498Z,100180.30
2018-06-24T20:01:51.620Z,100184.09
2018-06-24T20:06:52.854Z,100169.27
2018-06-24T20:14:25.595Z,100168.59
2018-06-24T20:19:23.908Z,100177.52
2018-06-24T20:31:05.197Z,100185.41
2018-06-24T20:33:32.050Z,100181.97
2018-06-24T20:35:58.353Z,100183.69
2018-06-24T20:38:26.412Z,100185.53
2018-06-24T20:40:57.608Z,100180.92
2018-06-24T20:53:29.847Z,100183.30
2018-06-24T20:55:55.885Z,100179.61
2018-06-24T20:58:21.912Z,100181.68
2018-06-24T21:00:52.615Z,100177.86
2018-06-24T21:03:22.347Z,100179.95
2018-06-24T21:08:20.841Z,100183.34
2018-06-24T21:10:47.939Z,100182.86
2018-06-24T21:13:14.121Z,100182.87
2018-06-24T21:15:40.191Z,100184.50
2018-06-24T21:18:07.082Z,100180.41
2018-06-24T21:20:33.066Z,100182.49
2018-06-24T21:23:00.106Z,100188.72
2018-06-24T21:25:26.097Z,100187.11
2018-06-24T21:27:53.107Z,100185.06
2018-06-24T21:32:50.463Z,100186.37
2018-06-24T21:35:16.436Z,100187.97
2018-06-24T21:37:42.976Z,100190.91
2018-06-24T21:40:08.994Z,100186.34
2018-06-24T21:47:43.198Z,100181.84
2018-06-24T21:50:09.876Z,100183.01
2018-06-24T21:52:35.927Z,100179.22
2018-06-24T21:55:01.968Z,100186.23
2018-06-24T21:57:27.953Z,100178.81
2018-06-24T21:59:53.974Z,100169.97
2018-06-24T22:02:20.076Z,100179.34
2018-06-24T22:04:46.114Z,100169.56
2018-06-24T22:07:12.170Z,100171.18
2018-06-24T22:09:38.180Z,100177.22
2018-06-24T22:12:04.233Z,100178.98
2018-06-24T22:14:30.345Z,100174.78
2018-06-24T22:16:56.564Z,100173.04
2018-06-24T22:19:22.630Z,100169.51
2018-06-24T22:21:50.698Z,100171.44
2018-06-24T22:24:16.766Z,100173.77
2018-06-24T22:26:42.849Z,100172.02
2018-06-24T22:29:08.886Z,100170.48
2018-06-24T22:31:34.926Z,100168.31
2018-06-24T22:34:01.092Z,100172.98
2018-06-24T22:36:27.194Z,100169.98
2018-06-24T22:38:53.237Z,100170.13
2018-06-24T22:41:19.313Z,100174.75
2018-06-24T22:43:45.356Z,100181.41
2018-06-24T22:46:11.385Z,100178.86
2018-06-24T22:48:38.409Z,100178.42
2018-06-24T22:51:04.508Z,100183.19
2018-06-24T22:53:30.548Z,100184.03
2018-06-24T22:55:56.578Z,100181.27
2018-06-24T22:58:22.747Z,100176.63
2018-06-24T23:00:48.756Z,100178.41
2018-06-24T23:03:14.884Z,100180.89
2018-06-24T23:05:40.880Z,100175.56
2018-06-24T23:08:07.766Z,100177.30
2018-06-24T23:10:33.844Z,100177.33
2018-06-24T23:12:59.908Z,100172.24
2018-06-24T23:15:25.915Z,100178.20
2018-06-24T23:17:51.952Z,100174.89
2018-06-24T23:20:17.952Z,100170.34
2018-06-24T23:22:43.986Z,100166.48
2018-06-24T23:25:10.006Z,100166.86
2018-06-24T23:30:08.285Z,100170.72
2018-06-24T23:32:35.137Z,100161.87
2018-06-24T23:35:01.172Z,100163.93
2018-06-24T23:37:27.234Z,100163.95
2018-06-24T23:39:53.313Z,100169.91
2018-06-24T23:42:19.354Z,100170.75
2018-06-24T23:44:45.380Z,100166.48
2018-06-24T23:47:11.398Z,100168.24
2018-06-24T23:49:37.419Z,100167.44
2018-06-24T23:52:03.459Z,100164.48
2018-06-24T23:54:29.410Z,100165.65
2018-06-24T23:56:55.447Z,100166.65
2018-06-24T23:59:21.419Z,100172.08
